Newcastle, Wyoming
Current Conditions -  °F | °C
As of 10:35 PM on Monday 26 Jan 2015 (Local Time) from KECS Reporting Station
Clear Clear  
Wind Chill: 32°   Ceiling: Unl
Heat Index: 36°   Visibility: 10mi
Dew Point: 30°   Wind: 5mph
Humidity: 81%   Direction: 10°N
Pressure: 30.07"   Gusts: NA
Location:  43.85°N, 104.2°W
Report Text: KECS 270535Z AUTO 01004KT 10SM CLR 02/M01 A3007 RMK AO2
Loading
Personal Weather Stations






























Interactive Weather Map New forecast layout! Learn more

10-Day Weather Forecast

Advertisements
Track Severe Weather on mobile